sensor_id;sensor_type;location;lat;lon;timestamp;temperature;humidity
29725;DHT22;16636;48.394;15.468;2022-12-10T07:02:24;2.30;99.90
29725;DHT22;16636;48.394;15.468;2022-12-10T07:04:50;2.30;99.90
29725;DHT22;16636;48.394;15.468;2022-12-10T07:07:31;2.30;99.90
29725;DHT22;16636;48.394;15.468;2022-12-10T07:10:15;2.30;99.90
29725;DHT22;16636;48.394;15.468;2022-12-10T07:12:41;2.30;99.90
29725;DHT22;16636;48.394;15.468;2022-12-10T07:15:07;2.30;99.90
29725;DHT22;16636;48.394;15.468;2022-12-10T07:17:34;2.30;99.90
29725;DHT22;16636;48.394;15.468;2022-12-10T07:20:00;2.30;99.90
29725;DHT22;16636;48.394;15.468;2022-12-10T07:22:26;2.40;99.90
29725;DHT22;16636;48.394;15.468;2022-12-10T07:24:52;2.40;99.90
29725;DHT22;16636;48.394;15.468;2022-12-10T07:27:18;2.40;99.90
29725;DHT22;16636;48.394;15.468;2022-12-10T07:29:45;2.40;99.90
29725;DHT22;16636;48.394;15.468;2022-12-10T07:32:11;2.40;99.90
29725;DHT22;16636;48.394;15.468;2022-12-10T07:34:37;2.40;99.90
29725;DHT22;16636;48.394;15.468;2022-12-10T07:37:03;2.40;99.90
29725;DHT22;16636;48.394;15.468;2022-12-10T07:39:29;2.40;99.90
29725;DHT22;16636;48.394;15.468;2022-12-10T07:41:55;2.40;99.90
29725;DHT22;16636;48.394;15.468;2022-12-10T07:44:24;2.40;99.90
29725;DHT22;16636;48.394;15.468;2022-12-10T07:46:52;2.40;99.90
29725;DHT22;16636;48.394;15.468;2022-12-10T07:49:19;2.40;99.90
29725;DHT22;16636;48.394;15.468;2022-12-10T07:51:49;2.40;99.90
29725;DHT22;16636;48.394;15.468;2022-12-10T07:54:17;2.40;99.90
29725;DHT22;16636;48.394;15.468;2022-12-10T07:56:43;2.40;99.90
29725;DHT22;16636;48.394;15.468;2022-12-10T07:59:09;2.40;99.90
29725;DHT22;16636;48.394;15.468;2022-12-10T08:01:36;2.50;99.90
29725;DHT22;16636;48.394;15.468;2022-12-10T08:04:02;2.40;99.90
29725;DHT22;16636;48.394;15.468;2022-12-10T08:06:29;2.50;99.90
29725;DHT22;16636;48.394;15.468;2022-12-10T08:08:55;2.50;99.90
29725;DHT22;16636;48.394;15.468;2022-12-10T08:11:22;2.50;99.90
29725;DHT22;16636;48.394;15.468;2022-12-10T08:13:48;2.50;99.90
29725;DHT22;16636;48.394;15.468;2022-12-10T08:16:18;2.50;99.90
29725;DHT22;16636;48.394;15.468;2022-12-10T08:18:45;2.50;99.90
29725;DHT22;16636;48.394;15.468;2022-12-10T08:21:16;2.50;99.90
29725;DHT22;16636;48.394;15.468;2022-12-10T08:23:43;2.50;99.90
29725;DHT22;16636;48.394;15.468;2022-12-10T08:26:20;2.50;99.90
29725;DHT22;16636;48.394;15.468;2022-12-10T08:28:48;2.50;99.90
29725;DHT22;16636;48.394;15.468;2022-12-10T08:31:17;2.50;99.90
29725;DHT22;16636;48.394;15.468;2022-12-10T08:33:43;2.50;99.90
29725;DHT22;16636;48.394;15.468;2022-12-10T08:36:12;2.50;99.90
29725;DHT22;16636;48.394;15.468;2022-12-10T08:38:39;2.50;99.90
29725;DHT22;16636;48.394;15.468;2022-12-10T08:41:11;2.50;99.90
29725;DHT22;16636;48.394;15.468;2022-12-10T08:43:37;2.60;99.90
29725;DHT22;16636;48.394;15.468;2022-12-10T08:46:04;2.60;99.90
29725;DHT22;16636;48.394;15.468;2022-12-10T08:48:32;2.60;99.90
29725;DHT22;16636;48.394;15.468;2022-12-10T08:50:58;2.60;99.90
29725;DHT22;16636;48.394;15.468;2022-12-10T08:53:24;2.60;99.90
29725;DHT22;16636;48.394;15.468;2022-12-10T08:55:51;2.60;99.90
29725;DHT22;16636;48.394;15.468;2022-12-10T08:58:18;2.60;99.90
29725;DHT22;16636;48.394;15.468;2022-12-10T09:00:45;2.60;99.90
29725;DHT22;16636;48.394;15.468;2022-12-10T09:03:11;2.70;99.90
29725;DHT22;16636;48.394;15.468;2022-12-10T09:05:37;2.70;99.90
29725;DHT22;16636;48.394;15.468;2022-12-10T09:08:04;2.70;99.90
29725;DHT22;16636;48.394;15.468;2022-12-10T09:10:30;2.70;99.90
29725;DHT22;16636;48.394;15.468;2022-12-10T09:12:56;2.80;99.90
29725;DHT22;16636;48.394;15.468;2022-12-10T09:15:22;2.80;99.90
29725;DHT22;16636;48.394;15.468;2022-12-10T09:17:48;2.80;99.90
29725;DHT22;16636;48.394;15.468;2022-12-10T09:20:15;2.80;99.90
29725;DHT22;16636;48.394;15.468;2022-12-10T09:22:41;2.80;99.90
29725;DHT22;16636;48.394;15.468;2022-12-10T09:25:08;2.80;99.90
29725;DHT22;16636;48.394;15.468;2022-12-10T09:27:36;2.80;99.90
29725;DHT22;16636;48.394;15.468;2022-12-10T09:30:03;2.80;99.90
29725;DHT22;16636;48.394;15.468;2022-12-10T09:32:30;2.80;99.90
29725;DHT22;16636;48.394;15.468;2022-12-10T09:34:56;2.80;99.90
29725;DHT22;16636;48.394;15.468;2022-12-10T09:37:22;2.80;99.90
29725;DHT22;16636;48.394;15.468;2022-12-10T09:39:48;2.80;99.90
29725;DHT22;16636;48.394;15.468;2022-12-10T09:47:10;2.80;99.90
29725;DHT22;16636;48.394;15.468;2022-12-10T09:52:26;2.80;99.90
29725;DHT22;16636;48.394;15.468;2022-12-10T09:54:57;2.80;99.90
29725;DHT22;16636;48.394;15.468;2022-12-10T09:57:32;2.80;99.90
29725;DHT22;16636;48.394;15.468;2022-12-10T10:00:03;2.80;99.90
29725;DHT22;16636;48.394;15.468;2022-12-10T10:02:37;2.80;99.90
29725;DHT22;16636;48.394;15.468;2022-12-10T10:07:37;2.80;99.90
29725;DHT22;16636;48.394;15.468;2022-12-10T10:10:07;2.90;99.90
29725;DHT22;16636;48.394;15.468;2022-12-10T10:12:34;2.90;99.90
29725;DHT22;16636;48.394;15.468;2022-12-10T10:15:21;2.90;99.90
29725;DHT22;16636;48.394;15.468;2022-12-10T10:17:49;2.90;99.90
29725;DHT22;16636;48.394;15.468;2022-12-10T10:20:19;2.90;99.90
29725;DHT22;16636;48.394;15.468;2022-12-10T10:22:45;2.90;99.90
29725;DHT22;16636;48.394;15.468;2022-12-10T10:25:16;2.90;99.90
29725;DHT22;16636;48.394;15.468;2022-12-10T10:27:42;2.90;99.90
29725;DHT22;16636;48.394;15.468;2022-12-10T10:30:20;2.90;99.90
29725;DHT22;16636;48.394;15.468;2022-12-10T10:32:52;2.90;99.90
29725;DHT22;16636;48.394;15.468;2022-12-10T10:36:02;2.90;99.90
29725;DHT22;16636;48.394;15.468;2022-12-10T10:38:29;2.90;99.90
29725;DHT22;16636;48.394;15.468;2022-12-10T10:41:01;2.90;99.90
29725;DHT22;16636;48.394;15.468;2022-12-10T10:43:33;2.90;99.90
29725;DHT22;16636;48.394;15.468;2022-12-10T10:46:06;2.90;99.90
29725;DHT22;16636;48.394;15.468;2022-12-10T10:48:36;2.90;99.90
29725;DHT22;16636;48.394;15.468;2022-12-10T10:51:21;2.90;99.90
29725;DHT22;16636;48.394;15.468;2022-12-10T10:53:55;2.90;99.90
29725;DHT22;16636;48.394;15.468;2022-12-10T10:56:27;2.90;99.90
29725;DHT22;16636;48.394;15.468;2022-12-10T10:58:59;2.90;99.90
29725;DHT22;16636;48.394;15.468;2022-12-10T11:01:42;2.90;99.90
29725;DHT22;16636;48.394;15.468;2022-12-10T11:04:09;2.90;99.90
29725;DHT22;16636;48.394;15.468;2022-12-10T11:06:36;2.90;99.90
29725;DHT22;16636;48.394;15.468;2022-12-10T11:09:05;2.90;99.90
29725;DHT22;16636;48.394;15.468;2022-12-10T11:14:24;2.90;99.90
29725;DHT22;16636;48.394;15.468;2022-12-10T11:16:50;2.90;99.90
29725;DHT22;16636;48.394;15.468;2022-12-10T11:19:23;2.90;99.90
29725;DHT22;16636;48.394;15.468;2022-12-10T11:21:52;3.00;99.90
29725;DHT22;16636;48.394;15.468;2022-12-10T11:24:19;3.00;99.90
29725;DHT22;16636;48.394;15.468;2022-12-10T11:29:51;3.00;99.90
29725;DHT22;16636;48.394;15.468;2022-12-10T11:38:28;3.00;99.90
29725;DHT22;16636;48.394;15.468;2022-12-10T11:41:18;3.00;99.90
29725;DHT22;16636;48.394;15.468;2022-12-10T11:47:14;2.90;99.90
29725;DHT22;16636;48.394;15.468;2022-12-10T11:52:49;3.00;99.90
29725;DHT22;16636;48.394;15.468;2022-12-10T11:58:44;3.00;99.90
29725;DHT22;16636;48.394;15.468;2022-12-10T12:04:23;3.00;99.90
29725;DHT22;16636;48.394;15.468;2022-12-10T12:09:39;3.00;99.90
29725;DHT22;16636;48.394;15.468;2022-12-10T12:14:46;3.10;99.90
29725;DHT22;16636;48.394;15.468;2022-12-10T12:17:41;3.10;99.90
29725;DHT22;16636;48.394;15.468;2022-12-10T12:20:37;3.10;99.90
29725;DHT22;16636;48.394;15.468;2022-12-10T12:26:32;3.10;99.90
29725;DHT22;16636;48.394;15.468;2022-12-10T12:29:28;3.20;99.90
29725;DHT22;16636;48.394;15.468;2022-12-10T12:37:12;3.20;99.90
29725;DHT22;16636;48.394;15.468;2022-12-10T12:42:38;3.20;99.90
29725;DHT22;16636;48.394;15.468;2022-12-10T12:45:24;3.20;99.90
29725;DHT22;16636;48.394;15.468;2022-12-10T12:50:41;3.20;99.90
29725;DHT22;16636;48.394;15.468;2022-12-10T12:53:14;3.20;99.90
29725;DHT22;16636;48.394;15.468;2022-12-10T12:58:17;3.20;99.90
29725;DHT22;16636;48.394;15.468;2022-12-10T13:00:48;3.20;99.90
29725;DHT22;16636;48.394;15.468;2022-12-10T13:03:36;3.20;99.90
29725;DHT22;16636;48.394;15.468;2022-12-10T13:06:23;3.20;99.90
29725;DHT22;16636;48.394;15.468;2022-12-10T13:11:29;3.20;99.90
29725;DHT22;16636;48.394;15.468;2022-12-10T13:22:02;3.30;99.90
29725;DHT22;16636;48.394;15.468;2022-12-10T13:33:05;3.30;99.90
29725;DHT22;16636;48.394;15.468;2022-12-10T13:46:35;3.30;99.90
29725;DHT22;16636;48.394;15.468;2022-12-10T13:49:19;3.30;99.90
29725;DHT22;16636;48.394;15.468;2022-12-10T13:57:32;3.30;99.90
29725;DHT22;16636;48.394;15.468;2022-12-10T14:00:13;3.30;99.90
29725;DHT22;16636;48.394;15.468;2022-12-10T14:08:02;3.20;99.90
29725;DHT22;16636;48.394;15.468;2022-12-10T14:10:36;3.20;99.90
29725;DHT22;16636;48.394;15.468;2022-12-10T14:13:04;3.20;99.90
29725;DHT22;16636;48.394;15.468;2022-12-10T14:15:31;3.20;99.90
29725;DHT22;16636;48.394;15.468;2022-12-10T14:18:03;3.20;99.90
29725;DHT22;16636;48.394;15.468;2022-12-10T14:20:31;3.20;99.90
29725;DHT22;16636;48.394;15.468;2022-12-10T14:23:04;3.20;99.90
29725;DHT22;16636;48.394;15.468;2022-12-10T14:25:51;3.20;99.90
29725;DHT22;16636;48.394;15.468;2022-12-10T14:28:18;3.20;99.90
29725;DHT22;16636;48.394;15.468;2022-12-10T14:30:47;3.20;99.90
29725;DHT22;16636;48.394;15.468;2022-12-10T14:33:17;3.20;99.90
29725;DHT22;16636;48.394;15.468;2022-12-10T14:35:47;3.20;99.90
29725;DHT22;16636;48.394;15.468;2022-12-10T14:38:27;3.20;99.90
29725;DHT22;16636;48.394;15.468;2022-12-10T14:40:55;3.20;99.90
29725;DHT22;16636;48.394;15.468;2022-12-10T14:43:37;3.20;99.90
29725;DHT22;16636;48.394;15.468;2022-12-10T14:46:05;3.20;99.90
29725;DHT22;16636;48.394;15.468;2022-12-10T14:48:41;3.10;99.90
29725;DHT22;16636;48.394;15.468;2022-12-10T14:51:17;3.10;99.90
29725;DHT22;16636;48.394;15.468;2022-12-10T14:53:45;3.10;99.90
29725;DHT22;16636;48.394;15.468;2022-12-10T15:01:30;3.10;99.90
29725;DHT22;16636;48.394;15.468;2022-12-10T15:04:00;3.10;99.90
29725;DHT22;16636;48.394;15.468;2022-12-10T15:06:27;3.10;99.90
29725;DHT22;16636;48.394;15.468;2022-12-10T15:08:56;3.10;99.90
29725;DHT22;16636;48.394;15.468;2022-12-10T15:11:24;3.10;99.90
29725;DHT22;16636;48.394;15.468;2022-12-10T15:13:59;3.10;99.90
29725;DHT22;16636;48.394;15.468;2022-12-10T15:16:39;3.10;99.90
29725;DHT22;16636;48.394;15.468;2022-12-10T15:19:25;3.10;99.90
29725;DHT22;16636;48.394;15.468;2022-12-10T15:21:56;3.10;99.90
29725;DHT22;16636;48.394;15.468;2022-12-10T15:24:37;3.10;99.90
29725;DHT22;16636;48.394;15.468;2022-12-10T15:27:19;3.10;99.90
29725;DHT22;16636;48.394;15.468;2022-12-10T15:29:46;3.10;99.90
29725;DHT22;16636;48.394;15.468;2022-12-10T15:32:27;3.10;99.90
29725;DHT22;16636;48.394;15.468;2022-12-10T15:35:03;3.10;99.90
29725;DHT22;16636;48.394;15.468;2022-12-10T15:37:37;3.10;99.90
29725;DHT22;16636;48.394;15.468;2022-12-10T15:40:07;3.10;99.90
29725;DHT22;16636;48.394;15.468;2022-12-10T15:42:44;3.10;99.90
29725;DHT22;16636;48.394;15.468;2022-12-10T15:47:45;3.10;99.90
29725;DHT22;16636;48.394;15.468;2022-12-10T15:50:12;3.10;99.90
29725;DHT22;16636;48.394;15.468;2022-12-10T15:52:38;3.10;99.90
29725;DHT22;16636;48.394;15.468;2022-12-10T15:55:05;3.10;99.90
29725;DHT22;16636;48.394;15.468;2022-12-10T15:57:35;3.10;99.90
29725;DHT22;16636;48.394;15.468;2022-12-10T16:00:10;3.10;99.90
29725;DHT22;16636;48.394;15.468;2022-12-10T16:02:46;3.10;99.90
29725;DHT22;16636;48.394;15.468;2022-12-10T16:05:21;3.10;99.90
29725;DHT22;16636;48.394;15.468;2022-12-10T16:07:49;3.10;99.90
29725;DHT22;16636;48.394;15.468;2022-12-10T16:10:18;3.10;99.90
29725;DHT22;16636;48.394;15.468;2022-12-10T16:12:47;3.10;99.90
29725;DHT22;16636;48.394;15.468;2022-12-10T16:15:23;3.10;99.90
29725;DHT22;16636;48.394;15.468;2022-12-10T16:17:53;3.10;99.90
29725;DHT22;16636;48.394;15.468;2022-12-10T16:20:24;3.10;99.90
29725;DHT22;16636;48.394;15.468;2022-12-10T16:22:55;3.10;99.90
29725;DHT22;16636;48.394;15.468;2022-12-10T16:25:24;3.10;99.90
29725;DHT22;16636;48.394;15.468;2022-12-10T16:27:50;3.00;99.90
29725;DHT22;16636;48.394;15.468;2022-12-10T16:32:51;3.00;99.90
29725;DHT22;16636;48.394;15.468;2022-12-10T16:35:18;3.00;99.90
29725;DHT22;16636;48.394;15.468;2022-12-10T16:37:46;3.00;99.90
29725;DHT22;16636;48.394;15.468;2022-12-10T16:40:13;3.00;99.90
29725;DHT22;16636;48.394;15.468;2022-12-10T16:42:40;3.00;99.90
29725;DHT22;16636;48.394;15.468;2022-12-10T16:45:24;3.00;99.90
29725;DHT22;16636;48.394;15.468;2022-12-10T16:47:50;3.00;99.90
29725;DHT22;16636;48.394;15.468;2022-12-10T16:50:17;3.00;99.90
29725;DHT22;16636;48.394;15.468;2022-12-10T16:52:44;3.00;99.90
29725;DHT22;16636;48.394;15.468;2022-12-10T16:55:16;3.00;99.90
29725;DHT22;16636;48.394;15.468;2022-12-10T16:57:44;3.00;99.90
29725;DHT22;16636;48.394;15.468;2022-12-10T17:00:13;3.00;99.90
29725;DHT22;16636;48.394;15.468;2022-12-10T17:02:41;3.00;99.90
29725;DHT22;16636;48.394;15.468;2022-12-10T17:05:18;3.00;99.90
29725;DHT22;16636;48.394;15.468;2022-12-10T17:07:48;3.00;99.90
29725;DHT22;16636;48.394;15.468;2022-12-10T17:10:14;3.00;99.90
29725;DHT22;16636;48.394;15.468;2022-12-10T17:12:41;3.00;99.90
29725;DHT22;16636;48.394;15.468;2022-12-10T17:15:12;3.00;99.90
29725;DHT22;16636;48.394;15.468;2022-12-10T17:17:39;3.00;99.90
29725;DHT22;16636;48.394;15.468;2022-12-10T17:20:15;3.00;99.90
29725;DHT22;16636;48.394;15.468;2022-12-10T17:22:41;3.00;99.90
29725;DHT22;16636;48.394;15.468;2022-12-10T17:25:07;3.00;99.90
29725;DHT22;16636;48.394;15.468;2022-12-10T17:27:33;3.00;99.90
29725;DHT22;16636;48.394;15.468;2022-12-10T17:29:59;3.00;99.90
29725;DHT22;16636;48.394;15.468;2022-12-10T17:32:25;3.00;99.90
29725;DHT22;16636;48.394;15.468;2022-12-10T17:34:51;3.00;99.90
29725;DHT22;16636;48.394;15.468;2022-12-10T17:37:19;3.00;99.90
29725;DHT22;16636;48.394;15.468;2022-12-10T17:39:46;3.00;99.90
29725;DHT22;16636;48.394;15.468;2022-12-10T17:42:12;3.00;99.90
29725;DHT22;16636;48.394;15.468;2022-12-10T17:44:38;2.90;99.90
29725;DHT22;16636;48.394;15.468;2022-12-10T17:47:22;2.90;99.90
29725;DHT22;16636;48.394;15.468;2022-12-10T17:49:49;2.90;99.90
29725;DHT22;16636;48.394;15.468;2022-12-10T17:52:15;2.90;99.90
29725;DHT22;16636;48.394;15.468;2022-12-10T17:54:41;2.90;99.90
29725;DHT22;16636;48.394;15.468;2022-12-10T17:57:15;2.90;99.90
29725;DHT22;16636;48.394;15.468;2022-12-10T17:59:43;2.90;99.90
29725;DHT22;16636;48.394;15.468;2022-12-10T18:02:09;2.90;99.90
29725;DHT22;16636;48.394;15.468;2022-12-10T18:04:37;2.90;99.90
29725;DHT22;16636;48.394;15.468;2022-12-10T18:07:14;2.90;99.90
29725;DHT22;16636;48.394;15.468;2022-12-10T18:09:40;2.90;99.90
29725;DHT22;16636;48.394;15.468;2022-12-10T18:12:07;2.90;99.90
29725;DHT22;16636;48.394;15.468;2022-12-10T18:14:34;2.90;99.90
29725;DHT22;16636;48.394;15.468;2022-12-10T18:17:00;2.90;99.90
29725;DHT22;16636;48.394;15.468;2022-12-10T18:19:26;2.90;99.90
29725;DHT22;16636;48.394;15.468;2022-12-10T18:21:52;2.90;99.90
29725;DHT22;16636;48.394;15.468;2022-12-10T18:24:18;2.90;99.90
29725;DHT22;16636;48.394;15.468;2022-12-10T18:26:45;2.90;99.90
29725;DHT22;16636;48.394;15.468;2022-12-10T18:29:11;2.90;99.90
29725;DHT22;16636;48.394;15.468;2022-12-10T18:31:44;2.90;99.90
29725;DHT22;16636;48.394;15.468;2022-12-10T18:34:12;2.80;99.90
29725;DHT22;16636;48.394;15.468;2022-12-10T18:36:42;2.90;99.90
29725;DHT22;16636;48.394;15.468;2022-12-10T18:39:18;2.90;99.90
29725;DHT22;16636;48.394;15.468;2022-12-10T18:41:45;2.80;99.90
29725;DHT22;16636;48.394;15.468;2022-12-10T18:44:12;2.90;99.90
29725;DHT22;16636;48.394;15.468;2022-12-10T18:46:39;2.90;99.90
29725;DHT22;16636;48.394;15.468;2022-12-10T18:49:06;2.90;99.90
29725;DHT22;16636;48.394;15.468;2022-12-10T18:51:32;2.90;99.90
29725;DHT22;16636;48.394;15.468;2022-12-10T18:53:58;2.80;99.90
29725;DHT22;16636;48.394;15.468;2022-12-10T18:56:26;2.90;99.90
29725;DHT22;16636;48.394;15.468;2022-12-10T18:58:55;2.80;99.90
29725;DHT22;16636;48.394;15.468;2022-12-10T19:01:22;2.80;99.90
29725;DHT22;16636;48.394;15.468;2022-12-10T19:03:54;2.80;99.90
29725;DHT22;16636;48.394;15.468;2022-12-10T19:06:22;2.80;99.90
29725;DHT22;16636;48.394;15.468;2022-12-10T19:08:50;2.80;99.90
29725;DHT22;16636;48.394;15.468;2022-12-10T19:11:18;2.80;99.90
29725;DHT22;16636;48.394;15.468;2022-12-10T19:13:44;2.80;99.90
29725;DHT22;16636;48.394;15.468;2022-12-10T19:16:15;2.70;99.90
29725;DHT22;16636;48.394;15.468;2022-12-10T19:18:42;2.70;99.90
29725;DHT22;16636;48.394;15.468;2022-12-10T19:21:10;2.80;99.90
29725;DHT22;16636;48.394;15.468;2022-12-10T19:23:38;2.80;99.90
29725;DHT22;16636;48.394;15.468;2022-12-10T19:26:19;2.70;99.90
29725;DHT22;16636;48.394;15.468;2022-12-10T19:28:48;2.70;99.90
29725;DHT22;16636;48.394;15.468;2022-12-10T19:31:14;2.70;99.90
29725;DHT22;16636;48.394;15.468;2022-12-10T19:33:40;2.70;99.90
29725;DHT22;16636;48.394;15.468;2022-12-10T19:36:24;2.70;99.90
29725;DHT22;16636;48.394;15.468;2022-12-10T19:38:51;2.70;99.90
29725;DHT22;16636;48.394;15.468;2022-12-10T19:41:17;2.60;99.90
29725;DHT22;16636;48.394;15.468;2022-12-10T19:43:44;2.60;99.90
29725;DHT22;16636;48.394;15.468;2022-12-10T19:46:16;2.60;99.90
29725;DHT22;16636;48.394;15.468;2022-12-10T19:48:43;2.60;99.90
29725;DHT22;16636;48.394;15.468;2022-12-10T19:51:09;2.60;99.90
29725;DHT22;16636;48.394;15.468;2022-12-10T19:53:36;2.60;99.90
29725;DHT22;16636;48.394;15.468;2022-12-10T19:56:28;2.60;99.90
29725;DHT22;16636;48.394;15.468;2022-12-10T19:58:57;2.60;99.90
29725;DHT22;16636;48.394;15.468;2022-12-10T20:01:24;2.60;99.90
29725;DHT22;16636;48.394;15.468;2022-12-10T20:03:51;2.60;99.90
29725;DHT22;16636;48.394;15.468;2022-12-10T20:06:19;2.60;99.90
29725;DHT22;16636;48.394;15.468;2022-12-10T20:08:48;2.60;99.90
29725;DHT22;16636;48.394;15.468;2022-12-10T20:11:14;2.60;99.90
29725;DHT22;16636;48.394;15.468;2022-12-10T20:13:40;2.60;99.90
29725;DHT22;16636;48.394;15.468;2022-12-10T20:16:20;2.60;99.90
29725;DHT22;16636;48.394;15.468;2022-12-10T20:18:47;2.60;99.90
29725;DHT22;16636;48.394;15.468;2022-12-10T20:21:13;2.60;99.90
29725;DHT22;16636;48.394;15.468;2022-12-10T20:23:40;2.70;99.90
29725;DHT22;16636;48.394;15.468;2022-12-10T20:26:28;2.70;99.90
29725;DHT22;16636;48.394;15.468;2022-12-10T20:28:54;2.70;99.90
29725;DHT22;16636;48.394;15.468;2022-12-10T20:31:21;2.70;99.90
29725;DHT22;16636;48.394;15.468;2022-12-10T20:33:47;2.70;99.90
29725;DHT22;16636;48.394;15.468;2022-12-10T20:36:20;2.80;99.90
29725;DHT22;16636;48.394;15.468;2022-12-10T20:38:47;2.70;99.90
29725;DHT22;16636;48.394;15.468;2022-12-10T20:41:14;2.70;99.90
29725;DHT22;16636;48.394;15.468;2022-12-10T20:43:41;2.70;99.90
29725;DHT22;16636;48.394;15.468;2022-12-10T20:46:25;2.70;99.90
29725;DHT22;16636;48.394;15.468;2022-12-10T20:48:53;2.80;99.90
29725;DHT22;16636;48.394;15.468;2022-12-10T20:51:19;2.80;99.90
29725;DHT22;16636;48.394;15.468;2022-12-10T20:53:46;2.80;99.90
29725;DHT22;16636;48.394;15.468;2022-12-10T20:56:16;2.80;99.90
29725;DHT22;16636;48.394;15.468;2022-12-10T20:58:42;2.80;99.90
29725;DHT22;16636;48.394;15.468;2022-12-10T21:01:08;2.80;99.90
29725;DHT22;16636;48.394;15.468;2022-12-10T21:03:34;2.80;99.90
29725;DHT22;16636;48.394;15.468;2022-12-10T21:06:01;2.80;99.90
29725;DHT22;16636;48.394;15.468;2022-12-10T21:08:27;2.80;99.90
29725;DHT22;16636;48.394;15.468;2022-12-10T21:10:53;2.80;99.90
29725;DHT22;16636;48.394;15.468;2022-12-10T21:13:27;2.80;99.90
29725;DHT22;16636;48.394;15.468;2022-12-10T21:15:55;2.80;99.90
29725;DHT22;16636;48.394;15.468;2022-12-10T21:18:23;2.80;99.90
29725;DHT22;16636;48.394;15.468;2022-12-10T21:20:50;2.80;99.90
29725;DHT22;16636;48.394;15.468;2022-12-10T21:23:21;2.80;99.90
29725;DHT22;16636;48.394;15.468;2022-12-10T21:25:48;2.80;99.90
29725;DHT22;16636;48.394;15.468;2022-12-10T21:28:14;2.80;99.90
29725;DHT22;16636;48.394;15.468;2022-12-10T21:30:40;2.80;99.90
29725;DHT22;16636;48.394;15.468;2022-12-10T21:33:09;2.80;99.90
29725;DHT22;16636;48.394;15.468;2022-12-10T21:35:37;2.80;99.90
29725;DHT22;16636;48.394;15.468;2022-12-10T21:38:03;2.80;99.90
29725;DHT22;16636;48.394;15.468;2022-12-10T21:40:30;2.80;99.90
29725;DHT22;16636;48.394;15.468;2022-12-10T21:42:56;2.80;99.90
29725;DHT22;16636;48.394;15.468;2022-12-10T21:45:42;2.80;99.90
29725;DHT22;16636;48.394;15.468;2022-12-10T21:48:10;2.80;99.90
29725;DHT22;16636;48.394;15.468;2022-12-10T21:50:37;2.70;99.90
29725;DHT22;16636;48.394;15.468;2022-12-10T21:53:03;2.80;99.90
29725;DHT22;16636;48.394;15.468;2022-12-10T21:55:30;2.80;99.90
29725;DHT22;16636;48.394;15.468;2022-12-10T21:57:56;2.80;99.90
29725;DHT22;16636;48.394;15.468;2022-12-10T22:00:23;2.80;99.90
29725;DHT22;16636;48.394;15.468;2022-12-10T22:02:49;2.80;99.90
29725;DHT22;16636;48.394;15.468;2022-12-10T22:05:15;2.70;99.90
29725;DHT22;16636;48.394;15.468;2022-12-10T22:07:41;2.70;99.90
29725;DHT22;16636;48.394;15.468;2022-12-10T22:10:10;2.70;99.90
29725;DHT22;16636;48.394;15.468;2022-12-10T22:12:36;2.70;99.90
29725;DHT22;16636;48.394;15.468;2022-12-10T22:15:03;2.70;99.90
29725;DHT22;16636;48.394;15.468;2022-12-10T22:17:29;2.70;99.90
29725;DHT22;16636;48.394;15.468;2022-12-10T22:19:55;2.70;99.90
29725;DHT22;16636;48.394;15.468;2022-12-10T22:22:21;2.70;99.90
29725;DHT22;16636;48.394;15.468;2022-12-10T22:24:47;2.70;99.90
29725;DHT22;16636;48.394;15.468;2022-12-10T22:27:13;2.70;99.90
29725;DHT22;16636;48.394;15.468;2022-12-10T22:29:40;2.70;99.90
29725;DHT22;16636;48.394;15.468;2022-12-10T22:32:06;2.70;99.90
29725;DHT22;16636;48.394;15.468;2022-12-10T22:34:32;2.70;99.90
29725;DHT22;16636;48.394;15.468;2022-12-10T22:36:58;2.70;99.90
29725;DHT22;16636;48.394;15.468;2022-12-10T22:39:25;2.70;99.90
29725;DHT22;16636;48.394;15.468;2022-12-10T22:41:52;2.70;99.90
29725;DHT22;16636;48.394;15.468;2022-12-10T22:44:18;2.70;99.90
29725;DHT22;16636;48.394;15.468;2022-12-10T22:46:45;2.70;99.90
29725;DHT22;16636;48.394;15.468;2022-12-10T22:49:11;2.70;99.90
29725;DHT22;16636;48.394;15.468;2022-12-10T22:51:37;2.70;99.90
29725;DHT22;16636;48.394;15.468;2022-12-10T22:54:04;2.70;99.90
29725;DHT22;16636;48.394;15.468;2022-12-10T22:56:30;2.70;99.90
29725;DHT22;16636;48.394;15.468;2022-12-10T22:58:57;2.70;99.90
29725;DHT22;16636;48.394;15.468;2022-12-10T23:01:25;2.60;99.90
29725;DHT22;16636;48.394;15.468;2022-12-10T23:03:53;2.70;99.90
29725;DHT22;16636;48.394;15.468;2022-12-10T23:06:20;2.70;99.90
29725;DHT22;16636;48.394;15.468;2022-12-10T23:08:47;2.70;99.90
29725;DHT22;16636;48.394;15.468;2022-12-10T23:11:14;2.60;99.90
29725;DHT22;16636;48.394;15.468;2022-12-10T23:13:41;2.60;99.90
29725;DHT22;16636;48.394;15.468;2022-12-10T23:16:10;2.60;99.90
29725;DHT22;16636;48.394;15.468;2022-12-10T23:18:38;2.60;99.90
29725;DHT22;16636;48.394;15.468;2022-12-10T23:21:14;2.60;99.90
29725;DHT22;16636;48.394;15.468;2022-12-10T23:23:40;2.60;99.90
29725;DHT22;16636;48.394;15.468;2022-12-10T23:26:06;2.60;99.90
29725;DHT22;16636;48.394;15.468;2022-12-10T23:28:32;2.60;99.90
29725;DHT22;16636;48.394;15.468;2022-12-10T23:30:58;2.50;99.90
29725;DHT22;16636;48.394;15.468;2022-12-10T23:33:24;2.50;99.90
29725;DHT22;16636;48.394;15.468;2022-12-10T23:35:50;2.50;99.90
29725;DHT22;16636;48.394;15.468;2022-12-10T23:38:16;2.50;99.90
29725;DHT22;16636;48.394;15.468;2022-12-10T23:40:43;2.50;99.90
29725;DHT22;16636;48.394;15.468;2022-12-10T23:43:11;2.50;99.90
29725;DHT22;16636;48.394;15.468;2022-12-10T23:45:41;2.50;99.90
29725;DHT22;16636;48.394;15.468;2022-12-10T23:48:08;2.50;99.90
29725;DHT22;16636;48.394;15.468;2022-12-10T23:50:35;2.50;99.90
29725;DHT22;16636;48.394;15.468;2022-12-10T23:53:02;2.50;99.90
29725;DHT22;16636;48.394;15.468;2022-12-10T23:55:29;2.50;99.90
29725;DHT22;16636;48.394;15.468;2022-12-10T23:57:54;2.50;99.90
